Portada
METAR-TAF:

METAR-TAF

Aeroports :

Yap, Micronèsia

latitud: 09-29N, longitud: 138-05E, altitud: 28 m

Observació

L'informe es va fer fa 19 minuts, a les 18:52 UTC
Vent 2 kt amb direcció variable
Temperatura 27°C
Humitat 89%
Pressió 1008 hPa
Visibilitat: 19.3 km
Escasses núvols a una alçada de 1600 ft
Cel ennuvolat a una alçada de 30000 ft

METAR: PTYA 151852Z VRB02KT 12SM FEW016 BKN300 27/25 A2978 RMK SLP086 T02670251

Hora: 05:11 (19:11 UTC)

Pronòstic

L'informe es va fer fa 1 hora i 39 minuts, a les 17:32 UTC
Pronòstic vàlid del 15 a les 18 UTC al 16 a les 18 UTC
Vent 5 kt amb direcció variable
Visibilitat: 10 km
Escasses núvols a una alçada de 1700 ft
Núvols disperses a una alçada de 12000 ft
xàfecs en les proximitats

TAF: PTYA 151732Z 1518/1618 VRB05KT P6SM VCSH FEW017 SCT120

Observacions i pronòstics meteorològics de més de 4000 aeroports (METAR i TAF).

Les estacions disponibles són els punts grocs i vermells al mapa.

Posi el ratolí al punt desitjat per veure el nom de l'estació.

Feu clic per veure les observacions i els pronòstics meteorològics.

Per canviar el mapa: feu clic els botons verds amb una creu de color negre per apropar; al botó verd amb un guió per allunyar la imatge; o en les fletxes verdes per a mapes adjacents.


METAR-TAF: